createdAt,value
2018-10-03T00:02:23.052Z,15.53
2018-10-03T00:04:51.462Z,16.77
2018-10-03T00:07:19.937Z,16.73
2018-10-03T00:09:48.399Z,14.53
2018-10-03T00:12:16.844Z,17.23
2018-10-03T00:14:45.280Z,14.63
2018-10-03T00:17:13.691Z,13.87
2018-10-03T00:19:42.201Z,11.43
2018-10-03T00:22:10.667Z,10.20
2018-10-03T00:24:39.121Z,19.70
2018-10-03T00:27:07.553Z,11.57
2018-10-03T00:29:36.044Z,11.30
2018-10-03T00:32:04.516Z,15.10
2018-10-03T00:34:33.029Z,9.50
2018-10-03T00:37:01.483Z,11.33
2018-10-03T00:39:29.922Z,9.33
2018-10-03T00:41:58.358Z,11.87
2018-10-03T00:44:26.780Z,14.50
2018-10-03T00:46:55.246Z,12.00
2018-10-03T00:49:23.733Z,11.17
2018-10-03T00:51:52.199Z,11.73
2018-10-03T00:54:20.644Z,10.93
2018-10-03T00:56:49.058Z,11.30
2018-10-03T00:59:17.516Z,10.73
2018-10-03T01:01:45.968Z,10.03
2018-10-03T01:04:14.462Z,9.00
2018-10-03T01:06:42.902Z,10.17
2018-10-03T01:09:11.362Z,9.70
2018-10-03T01:11:39.810Z,9.27
2018-10-03T01:14:08.223Z,10.30
2018-10-03T01:16:36.666Z,12.77
2018-10-03T01:19:05.120Z,11.67
2018-10-03T01:21:33.560Z,10.87
2018-10-03T01:24:02.028Z,10.07
2018-10-03T01:26:30.481Z,14.73
2018-10-03T01:28:58.922Z,13.77
2018-10-03T01:31:27.377Z,8.63
2018-10-03T01:33:55.800Z,6.87
2018-10-03T01:36:24.228Z,8.80
2018-10-03T01:38:52.673Z,8.77
2018-10-03T01:41:21.123Z,10.00
2018-10-03T01:43:49.577Z,7.43
2018-10-03T01:46:18.021Z,7.40
2018-10-03T01:48:46.462Z,9.37
2018-10-03T01:51:14.917Z,7.50
2018-10-03T01:53:43.371Z,8.73
2018-10-03T01:56:11.802Z,13.30
2018-10-03T01:58:40.260Z,9.60
2018-10-03T02:01:08.753Z,10.57
2018-10-03T02:03:37.167Z,8.33
2018-10-03T02:06:05.617Z,10.30
2018-10-03T02:08:34.055Z,9.53
2018-10-03T02:11:02.485Z,12.73
2018-10-03T02:13:30.919Z,11.47
2018-10-03T02:15:59.397Z,9.67
2018-10-03T02:18:27.847Z,12.00
2018-10-03T02:20:56.323Z,10.17
2018-10-03T02:23:24.777Z,13.80
2018-10-03T02:25:53.200Z,14.80
2018-10-03T02:28:21.882Z,14.37
2018-10-03T02:30:51.021Z,15.40
2018-10-03T02:33:19.450Z,13.73
2018-10-03T02:35:47.891Z,13.07
2018-10-03T02:38:16.348Z,14.53
2018-10-03T02:40:44.797Z,16.93
2018-10-03T02:43:13.253Z,19.90
2018-10-03T02:45:41.738Z,13.47
2018-10-03T02:48:10.182Z,15.23
2018-10-03T02:50:38.626Z,12.57
2018-10-03T02:53:07.193Z,17.23
2018-10-03T02:55:35.643Z,20.63
2018-10-03T02:58:04.171Z,19.43
2018-10-03T03:00:32.556Z,18.13
2018-10-03T03:03:00.990Z,15.73
2018-10-03T03:05:29.434Z,22.97
2018-10-03T03:07:57.938Z,15.83
2018-10-03T03:10:26.415Z,27.23
2018-10-03T03:12:54.934Z,18.97
2018-10-03T03:15:23.394Z,21.83
2018-10-03T03:17:51.856Z,18.27
2018-10-03T03:20:20.302Z,26.57
2018-10-03T03:22:48.718Z,18.83
2018-10-03T03:25:17.168Z,22.13
2018-10-03T03:27:45.583Z,23.50
2018-10-03T03:30:14.062Z,17.07
2018-10-03T03:32:42.504Z,17.97
2018-10-03T03:35:10.972Z,21.63
2018-10-03T03:37:39.457Z,20.37
2018-10-03T03:40:07.903Z,26.90
2018-10-03T03:42:36.347Z,17.90
2018-10-03T03:45:04.793Z,19.43
2018-10-03T03:47:33.219Z,17.30
2018-10-03T03:50:01.674Z,22.20
2018-10-03T03:52:30.110Z,23.57
2018-10-03T03:54:58.543Z,24.73
2018-10-03T03:57:27.060Z,23.70
2018-10-03T03:59:55.529Z,31.70
2018-10-03T04:02:24.010Z,20.70
2018-10-03T04:04:52.417Z,27.03
2018-10-03T04:07:20.930Z,29.20
2018-10-03T04:09:49.371Z,20.83
2018-10-03T04:12:17.843Z,24.40
2018-10-03T04:14:46.281Z,26.90
2018-10-03T04:17:14.813Z,28.93
2018-10-03T04:19:43.296Z,28.87
2018-10-03T04:22:11.715Z,29.17
2018-10-03T04:24:40.397Z,31.90
2018-10-03T04:27:08.839Z,46.87
2018-10-03T04:29:37.315Z,24.50
2018-10-03T04:32:05.771Z,31.23
2018-10-03T04:34:35.329Z,34.03
2018-10-03T04:37:03.809Z,30.17
2018-10-03T04:39:32.313Z,30.63
2018-10-03T04:42:00.753Z,36.10
2018-10-03T04:44:29.248Z,23.67
2018-10-03T04:46:57.692Z,31.03
2018-10-03T04:49:26.150Z,27.13
2018-10-03T04:51:54.639Z,39.00
2018-10-03T04:54:23.072Z,32.30
2018-10-03T04:56:51.504Z,38.20
2018-10-03T04:59:20.010Z,34.63
2018-10-03T05:01:48.510Z,33.70
2018-10-03T05:04:16.954Z,36.80
2018-10-03T05:06:45.408Z,33.17
2018-10-03T05:09:13.929Z,34.47
2018-10-03T05:11:43.097Z,38.57
2018-10-03T05:14:11.570Z,41.57
2018-10-03T05:16:40.090Z,38.90
2018-10-03T05:19:08.698Z,32.57
2018-10-03T05:21:39.487Z,38.03
2018-10-03T05:24:08.330Z,31.90
2018-10-03T05:26:36.912Z,37.80
2018-10-03T05:29:05.428Z,36.47
2018-10-03T05:31:33.871Z,38.93
2018-10-03T05:34:02.371Z,32.63
2018-10-03T05:36:30.950Z,32.27
2018-10-03T05:39:01.227Z,33.70
2018-10-03T05:41:29.807Z,34.97
2018-10-03T05:43:58.227Z,32.90
2018-10-03T05:46:26.739Z,40.93
2018-10-03T05:48:55.259Z,36.67
2018-10-03T05:51:23.722Z,38.17
2018-10-03T05:53:52.149Z,39.67
2018-10-03T05:56:20.710Z,37.03
2018-10-03T05:58:49.171Z,40.47
2018-10-03T06:01:17.638Z,36.43
2018-10-03T06:03:46.065Z,31.57
2018-10-03T06:06:14.535Z,35.53
2018-10-03T06:08:43.048Z,40.90
2018-10-03T06:11:11.504Z,36.00
2018-10-03T06:13:39.969Z,32.43
2018-10-03T06:16:08.481Z,42.77
2018-10-03T06:18:37.059Z,32.83
2018-10-03T06:21:05.539Z,39.77
2018-10-03T06:23:33.983Z,30.57
2018-10-03T06:26:02.434Z,34.87
2018-10-03T06:28:30.887Z,40.93
2018-10-03T06:30:59.356Z,40.53
2018-10-03T06:33:27.844Z,35.17
2018-10-03T06:35:56.268Z,36.90
2018-10-03T06:38:24.714Z,33.17
2018-10-03T06:40:53.162Z,45.97
2018-10-03T06:43:21.654Z,49.20
2018-10-03T06:45:50.224Z,56.60
2018-10-03T06:48:18.674Z,49.00
2018-10-03T06:50:47.180Z,32.83
2018-10-03T06:53:15.684Z,35.20
2018-10-03T06:55:44.107Z,35.03
2018-10-03T06:58:12.519Z,42.13
2018-10-03T07:00:40.966Z,31.97
2018-10-03T07:03:09.454Z,29.67
2018-10-03T07:05:37.948Z,34.73
2018-10-03T07:08:06.485Z,41.57
2018-10-03T07:10:34.962Z,34.37
2018-10-03T07:13:03.567Z,39.20
2018-10-03T07:15:31.957Z,35.40
2018-10-03T07:18:00.457Z,35.60
2018-10-03T07:20:28.921Z,33.73
2018-10-03T07:22:57.365Z,20.50
2018-10-03T07:25:25.863Z,28.07
2018-10-03T07:27:54.339Z,31.57
2018-10-03T07:30:22.817Z,35.30
2018-10-03T07:32:51.307Z,26.17
2018-10-03T07:35:19.783Z,27.03
2018-10-03T07:37:48.284Z,26.57
2018-10-03T07:40:16.809Z,31.73
2018-10-03T07:42:45.274Z,33.90
2018-10-03T07:45:13.727Z,34.47
2018-10-03T07:47:42.175Z,24.60
2018-10-03T07:50:10.655Z,29.73
2018-10-03T07:52:39.171Z,30.97
2018-10-03T07:55:07.657Z,27.10
2018-10-03T07:57:36.132Z,32.63
2018-10-03T08:00:05.438Z,31.17
2018-10-03T08:02:33.903Z,33.63
2018-10-03T08:05:02.358Z,31.73
2018-10-03T08:07:30.824Z,32.97
2018-10-03T08:09:59.353Z,33.63
2018-10-03T08:12:27.769Z,31.30
2018-10-03T08:14:56.242Z,30.43
2018-10-03T08:17:24.728Z,33.80
2018-10-03T08:19:53.194Z,30.93
2018-10-03T08:22:21.647Z,22.03
2018-10-03T08:24:50.125Z,22.27
2018-10-03T08:27:18.599Z,27.03
2018-10-03T08:29:47.060Z,23.77
2018-10-03T08:32:15.561Z,26.43
2018-10-03T08:34:44.014Z,29.13
2018-10-03T08:37:12.449Z,22.63
2018-10-03T08:39:40.902Z,28.43
2018-10-03T08:42:09.389Z,27.50
2018-10-03T08:44:37.821Z,23.20
2018-10-03T08:47:06.614Z,19.97
2018-10-03T08:49:35.064Z,26.60
2018-10-03T08:52:03.535Z,20.37
2018-10-03T08:54:32.018Z,29.80
2018-10-03T08:57:00.524Z,18.43
2018-10-03T08:59:29.014Z,27.37
2018-10-03T09:01:57.496Z,21.37
2018-10-03T09:04:26.098Z,31.07
2018-10-03T09:06:54.556Z,23.13
2018-10-03T09:09:23.018Z,28.87
2018-10-03T09:11:51.464Z,24.30
2018-10-03T09:14:19.923Z,18.73
2018-10-03T09:16:48.393Z,20.07
2018-10-03T09:19:16.833Z,28.00
2018-10-03T09:21:45.444Z,21.10
2018-10-03T09:24:13.917Z,24.23
2018-10-03T09:26:42.358Z,19.80
2018-10-03T09:29:10.806Z,21.67
2018-10-03T09:31:39.311Z,21.27
2018-10-03T09:34:07.783Z,22.60
2018-10-03T09:36:36.247Z,20.70
2018-10-03T09:39:07.639Z,21.53
2018-10-03T09:41:36.155Z,26.63
2018-10-03T09:44:04.683Z,21.07
2018-10-03T09:46:33.210Z,17.47
2018-10-03T09:49:01.691Z,24.07
2018-10-03T09:51:30.210Z,22.10
2018-10-03T09:53:58.726Z,19.60
2018-10-03T09:56:27.272Z,21.27
2018-10-03T09:58:55.707Z,23.27
2018-10-03T10:01:30.144Z,26.73
2018-10-03T10:03:59.752Z,20.97
2018-10-03T10:06:28.684Z,30.23
2018-10-03T10:08:57.110Z,18.93
2018-10-03T10:11:25.821Z,24.53
2018-10-03T10:13:54.200Z,26.20
2018-10-03T10:16:22.686Z,27.07
2018-10-03T10:18:51.142Z,23.33
2018-10-03T10:21:19.591Z,17.27
2018-10-03T10:23:48.030Z,20.70
2018-10-03T10:26:16.480Z,17.70
2018-10-03T10:28:44.958Z,21.80
2018-10-03T10:31:13.413Z,19.97
2018-10-03T10:33:41.862Z,16.20
2018-10-03T10:36:10.294Z,19.67
2018-10-03T10:38:38.754Z,20.90
2018-10-03T10:41:07.324Z,20.20
2018-10-03T10:43:35.721Z,20.27
2018-10-03T10:46:04.198Z,20.37
2018-10-03T10:48:32.669Z,21.23
2018-10-03T10:51:01.129Z,14.63
2018-10-03T10:53:29.580Z,14.23
2018-10-03T10:55:58.026Z,17.00
2018-10-03T10:58:26.489Z,18.37
2018-10-03T11:00:54.977Z,16.80
2018-10-03T11:03:23.415Z,18.47
2018-10-03T11:05:51.913Z,19.50
2018-10-03T11:08:20.378Z,14.23
2018-10-03T11:10:48.837Z,16.87
2018-10-03T11:13:17.297Z,17.50
2018-10-03T11:15:45.781Z,20.03
2018-10-03T11:18:14.272Z,14.50
2018-10-03T11:20:42.755Z,20.23
2018-10-03T11:23:11.185Z,14.83
2018-10-03T11:25:39.944Z,15.77
2018-10-03T11:28:08.430Z,14.93
2018-10-03T11:30:36.895Z,15.60
2018-10-03T11:33:05.353Z,12.47
2018-10-03T11:35:33.843Z,17.03
2018-10-03T11:38:02.305Z,18.90
2018-10-03T11:40:30.814Z,20.80
2018-10-03T11:42:59.275Z,14.43
2018-10-03T11:45:27.755Z,14.47
2018-10-03T11:47:56.246Z,13.70
2018-10-03T11:50:24.764Z,11.73
2018-10-03T11:52:53.246Z,13.60
2018-10-03T11:55:21.734Z,11.70
2018-10-03T11:57:50.187Z,15.83
2018-10-03T12:00:18.631Z,11.07
2018-10-03T12:02:47.145Z,13.43
2018-10-03T12:05:15.579Z,14.03
2018-10-03T12:07:44.058Z,14.63
2018-10-03T12:10:12.960Z,10.20
2018-10-03T12:12:41.424Z,12.40
2018-10-03T12:15:12.478Z,14.87
2018-10-03T12:17:40.932Z,11.10
2018-10-03T12:20:09.379Z,12.17
2018-10-03T12:22:37.895Z,16.73
2018-10-03T12:25:06.484Z,17.93
2018-10-03T12:27:34.921Z,16.60
2018-10-03T12:30:03.488Z,11.67
2018-10-03T12:32:31.942Z,14.37
2018-10-03T12:35:00.433Z,13.60
2018-10-03T12:37:28.905Z,18.37
2018-10-03T12:39:57.399Z,11.30
2018-10-03T12:42:25.867Z,10.90
2018-10-03T12:44:54.336Z,13.83
2018-10-03T12:47:22.807Z,14.63
2018-10-03T12:49:51.283Z,15.03
2018-10-03T12:52:19.758Z,12.23
2018-10-03T12:54:48.314Z,14.57
2018-10-03T12:57:16.755Z,16.80
2018-10-03T12:59:45.218Z,18.17
2018-10-03T13:02:13.652Z,16.57
2018-10-03T13:04:42.073Z,15.97
2018-10-03T13:07:10.531Z,14.53
2018-10-03T13:09:38.991Z,14.50
2018-10-03T13:12:07.539Z,22.57
2018-10-03T13:14:36.007Z,25.20
2018-10-03T13:17:04.455Z,14.23
2018-10-03T13:19:32.919Z,19.77
2018-10-03T13:22:01.374Z,17.20
2018-10-03T13:24:29.867Z,17.03
2018-10-03T13:26:58.301Z,22.03
2018-10-03T13:29:26.757Z,15.70
2018-10-03T13:31:55.186Z,16.70
2018-10-03T13:34:23.655Z,20.67
2018-10-03T13:36:52.109Z,16.47
2018-10-03T13:39:20.593Z,15.27
2018-10-03T13:41:49.083Z,12.60
2018-10-03T13:44:17.552Z,15.67
2018-10-03T13:46:46.088Z,14.50
2018-10-03T13:49:14.807Z,16.17
2018-10-03T13:51:43.296Z,19.07
2018-10-03T13:54:18.393Z,20.33
2018-10-03T13:56:46.844Z,15.23
2018-10-03T13:59:15.326Z,16.23
2018-10-03T14:01:43.764Z,16.90
2018-10-03T14:04:12.236Z,17.70
2018-10-03T14:06:40.676Z,13.60
2018-10-03T14:09:10.246Z,17.33
2018-10-03T14:11:38.752Z,21.70
2018-10-03T14:14:07.206Z,17.57
2018-10-03T14:16:35.669Z,22.40
2018-10-03T14:19:04.200Z,22.77
2018-10-03T14:21:32.661Z,22.00
2018-10-03T14:24:01.102Z,14.73
2018-10-03T14:26:29.555Z,16.27
2018-10-03T14:28:58.067Z,21.00
2018-10-03T14:31:26.602Z,15.00
2018-10-03T14:33:55.100Z,18.13
2018-10-03T14:36:23.587Z,22.37
2018-10-03T14:38:52.054Z,20.47
2018-10-03T14:41:20.548Z,16.37
2018-10-03T14:43:49.021Z,17.73
2018-10-03T14:46:17.502Z,16.90
2018-10-03T14:48:46.054Z,19.37
2018-10-03T14:51:14.557Z,17.70
2018-10-03T14:53:43.095Z,15.03
2018-10-03T14:56:11.545Z,21.90
2018-10-03T14:58:40.106Z,18.47
2018-10-03T15:01:08.575Z,20.83
2018-10-03T15:03:37.023Z,38.43
2018-10-03T15:06:05.684Z,22.63
2018-10-03T15:08:34.485Z,24.87
2018-10-03T15:11:02.996Z,19.57
2018-10-03T15:13:31.419Z,20.80
2018-10-03T15:15:59.903Z,17.60
2018-10-03T15:18:28.367Z,17.93
2018-10-03T15:20:56.825Z,17.30
2018-10-03T15:23:25.277Z,17.53
2018-10-03T15:25:53.771Z,21.00
2018-10-03T15:28:22.276Z,18.47
2018-10-03T15:30:50.785Z,19.20
2018-10-03T15:33:19.290Z,20.33
2018-10-03T15:35:47.796Z,17.47
2018-10-03T15:38:16.540Z,20.00
2018-10-03T15:40:45.411Z,19.70
2018-10-03T15:43:14.245Z,17.60
2018-10-03T15:45:43.313Z,14.13
2018-10-03T15:48:14.237Z,16.23
2018-10-03T15:50:42.880Z,11.20
2018-10-03T15:53:11.464Z,13.77
2018-10-03T15:55:40.012Z,19.37
2018-10-03T15:58:08.626Z,18.87
2018-10-03T16:00:37.278Z,12.77
2018-10-03T16:03:05.835Z,10.53
2018-10-03T16:05:34.421Z,12.50
2018-10-03T16:08:02.946Z,14.70
2018-10-03T16:10:31.493Z,13.10
2018-10-03T16:12:59.962Z,13.57
2018-10-03T16:15:28.601Z,11.37
2018-10-03T16:17:57.094Z,11.63
2018-10-03T16:20:25.579Z,10.90
2018-10-03T16:22:54.075Z,11.80
2018-10-03T16:25:22.615Z,18.20
2018-10-03T16:27:51.277Z,15.60
2018-10-03T16:30:20.048Z,15.00
2018-10-03T16:32:48.694Z,12.33
2018-10-03T16:35:17.492Z,12.67
2018-10-03T16:37:45.998Z,14.10
2018-10-03T16:40:14.626Z,15.00
2018-10-03T16:42:43.186Z,16.97
2018-10-03T16:45:11.789Z,16.20
2018-10-03T16:47:40.454Z,16.43
2018-10-03T16:50:09.053Z,10.93
2018-10-03T16:52:37.567Z,13.43
2018-10-03T16:55:06.249Z,15.03
2018-10-03T16:57:35.333Z,10.57
2018-10-03T17:00:04.083Z,18.10
2018-10-03T17:02:32.877Z,13.13
2018-10-03T17:05:01.380Z,33.13
2018-10-03T17:07:29.883Z,19.87
2018-10-03T17:09:58.462Z,15.93
2018-10-03T17:12:27.000Z,15.67
2018-10-03T17:14:55.494Z,16.33
2018-10-03T17:17:24.116Z,20.40
2018-10-03T17:19:52.546Z,19.23
2018-10-03T17:22:21.018Z,16.57
2018-10-03T17:24:49.470Z,21.47
2018-10-03T17:27:17.978Z,16.57
2018-10-03T17:29:46.462Z,13.30
2018-10-03T17:32:14.922Z,13.03
2018-10-03T17:34:43.369Z,21.63
2018-10-03T17:37:11.910Z,11.47
2018-10-03T17:39:40.362Z,17.80
2018-10-03T17:42:08.826Z,15.17
2018-10-03T17:44:37.331Z,17.57
2018-10-03T17:47:05.908Z,18.93
2018-10-03T17:49:34.410Z,15.43
2018-10-03T17:52:03.003Z,19.57
2018-10-03T17:54:31.517Z,11.90
2018-10-03T17:57:00.065Z,12.97
2018-10-03T17:59:29.367Z,15.87
2018-10-03T18:01:59.774Z,16.70
2018-10-03T18:04:28.339Z,17.63
2018-10-03T18:06:56.813Z,15.00
2018-10-03T18:09:25.344Z,16.73
2018-10-03T18:11:53.881Z,17.77
2018-10-03T18:14:22.388Z,18.50
2018-10-03T18:16:50.850Z,19.27
2018-10-03T18:19:19.357Z,16.63
2018-10-03T18:21:47.866Z,16.80
2018-10-03T18:24:16.321Z,15.30
2018-10-03T18:26:44.782Z,19.03
2018-10-03T18:29:13.293Z,23.93
2018-10-03T18:31:41.773Z,18.70
2018-10-03T18:34:10.292Z,23.33
2018-10-03T18:36:38.734Z,20.63
2018-10-03T18:39:08.632Z,18.17
2018-10-03T18:41:37.235Z,24.13
2018-10-03T18:44:05.872Z,19.40
2018-10-03T18:46:34.439Z,20.63
2018-10-03T18:49:02.944Z,20.70
2018-10-03T18:51:31.425Z,20.80
2018-10-03T18:53:59.879Z,23.03
2018-10-03T18:56:28.459Z,18.20
2018-10-03T18:58:57.081Z,22.63
2018-10-03T19:01:25.567Z,21.40
2018-10-03T19:03:54.019Z,22.50
2018-10-03T19:06:22.487Z,25.53
2018-10-03T19:08:50.939Z,20.73
2018-10-03T19:11:19.462Z,21.73
2018-10-03T19:13:47.954Z,20.47
2018-10-03T19:16:16.410Z,23.47
2018-10-03T19:18:44.898Z,23.70
2018-10-03T19:21:13.370Z,18.83
2018-10-03T19:23:41.879Z,21.43
2018-10-03T19:26:10.468Z,24.73
2018-10-03T19:28:38.947Z,21.43
2018-10-03T19:31:07.887Z,23.40
2018-10-03T19:33:36.349Z,23.27
2018-10-03T19:36:04.854Z,28.17
2018-10-03T19:38:33.449Z,25.53
2018-10-03T19:41:01.926Z,22.57
2018-10-03T19:43:30.433Z,25.17
2018-10-03T19:45:58.874Z,18.50
2018-10-03T19:48:27.449Z,26.00
2018-10-03T19:50:55.919Z,26.37
2018-10-03T19:53:29.804Z,16.43
2018-10-03T19:55:58.283Z,23.27
2018-10-03T19:58:26.772Z,14.77
2018-10-03T20:00:55.291Z,20.87
2018-10-03T20:03:23.799Z,20.90
2018-10-03T20:05:52.281Z,17.23
2018-10-03T20:08:21.100Z,21.27
2018-10-03T20:10:50.039Z,20.87
2018-10-03T20:13:18.508Z,24.40
2018-10-03T20:15:46.977Z,19.63
2018-10-03T20:18:15.427Z,22.20
2018-10-03T20:20:43.898Z,26.07
2018-10-03T20:23:12.385Z,21.60
2018-10-03T20:25:40.819Z,18.63
2018-10-03T20:28:10.651Z,22.13
2018-10-03T20:30:39.153Z,17.37
2018-10-03T20:33:07.631Z,21.03
2018-10-03T20:35:36.118Z,25.87
2018-10-03T20:38:04.630Z,19.37
2018-10-03T20:40:33.102Z,20.87
2018-10-03T20:43:01.557Z,21.67
2018-10-03T20:45:29.998Z,18.77
2018-10-03T20:47:58.457Z,18.30
2018-10-03T20:50:26.927Z,20.03
2018-10-03T20:52:55.392Z,20.57
2018-10-03T20:55:23.919Z,19.87
2018-10-03T20:57:52.384Z,19.70
2018-10-03T21:00:20.906Z,23.43
2018-10-03T21:02:49.347Z,21.00
2018-10-03T21:05:17.844Z,21.67
2018-10-03T21:07:46.283Z,23.63
2018-10-03T21:10:14.746Z,22.83
2018-10-03T21:12:43.247Z,18.47
2018-10-03T21:15:11.724Z,16.73
2018-10-03T21:17:40.166Z,27.17
2018-10-03T21:20:08.622Z,19.97
2018-10-03T21:22:37.098Z,25.10
2018-10-03T21:25:05.649Z,21.53
2018-10-03T21:27:34.084Z,23.60
2018-10-03T21:30:02.554Z,21.70
2018-10-03T21:32:31.080Z,19.27
2018-10-03T21:34:59.484Z,21.00
2018-10-03T21:37:27.969Z,24.60
2018-10-03T21:39:56.423Z,17.43
2018-10-03T21:42:24.902Z,19.77
2018-10-03T21:44:53.384Z,17.90
2018-10-03T21:47:21.833Z,20.57
2018-10-03T21:49:50.342Z,18.10
2018-10-03T21:52:18.799Z,20.53
2018-10-03T21:54:47.284Z,19.77
2018-10-03T21:57:15.765Z,21.47
2018-10-03T21:59:44.281Z,22.43
2018-10-03T22:02:12.742Z,19.83
2018-10-03T22:04:41.197Z,19.57
2018-10-03T22:07:09.693Z,15.87
2018-10-03T22:09:38.166Z,25.90
2018-10-03T22:12:06.637Z,21.47
2018-10-03T22:14:35.082Z,18.83
2018-10-03T22:17:03.583Z,22.47
2018-10-03T22:19:32.053Z,18.63
2018-10-03T22:22:00.495Z,24.80
2018-10-03T22:24:28.944Z,17.97
2018-10-03T22:26:57.395Z,23.87
2018-10-03T22:29:25.890Z,23.97
2018-10-03T22:31:54.309Z,18.87
2018-10-03T22:34:22.826Z,25.83
2018-10-03T22:36:51.258Z,25.80
2018-10-03T22:39:19.706Z,22.07
2018-10-03T22:41:48.133Z,24.23
2018-10-03T22:44:16.562Z,21.57
2018-10-03T22:46:45.027Z,19.77
2018-10-03T22:49:13.480Z,17.67
2018-10-03T22:51:42.227Z,21.20
2018-10-03T22:54:10.706Z,19.77
2018-10-03T22:56:39.181Z,23.70
2018-10-03T22:59:07.639Z,20.40
2018-10-03T23:01:36.095Z,22.53
2018-10-03T23:04:04.571Z,17.23
2018-10-03T23:06:33.037Z,19.90
2018-10-03T23:09:01.502Z,19.47
2018-10-03T23:11:29.996Z,22.73
2018-10-03T23:13:58.456Z,26.17
2018-10-03T23:16:26.934Z,23.27
2018-10-03T23:18:55.410Z,21.63
2018-10-03T23:21:23.897Z,18.20
2018-10-03T23:23:52.347Z,21.53
2018-10-03T23:26:20.817Z,21.90
2018-10-03T23:28:49.262Z,27.37
2018-10-03T23:31:17.821Z,22.80
2018-10-03T23:33:46.263Z,21.47
2018-10-03T23:36:14.712Z,19.07
2018-10-03T23:38:43.175Z,21.53
2018-10-03T23:41:11.601Z,21.00
2018-10-03T23:43:40.065Z,18.27
2018-10-03T23:46:08.565Z,22.10
2018-10-03T23:48:37.005Z,20.37
2018-10-03T23:51:05.523Z,19.53
2018-10-03T23:53:33.995Z,17.13
2018-10-03T23:56:02.451Z,21.20
2018-10-03T23:58:30.949Z,20.40
